Time;durP1;ratioP1;P1;durP2;ratioP2;P2;SDS_P1;SDS_P2;PMS_P1;PMS_P2;Temp;Humidity;BMP_temperature;BMP_pressure;BME280_temperature;BME280_humidity;BME280_pressure;Samples;Min_cycle;Max_cycle;Signal;HPM_P1;HPM_P2
2022/09/14 00:01:15;;;;;;;;;;;;;;;16.38;57.41;100541.31;5082244;28;869;-54
2022/09/14 00:03:40;;;;;;;;;;;;;;;16.31;57.29;100535.28;5081096;28;1910;-57
2022/09/14 00:06:12;;;;;;;;;;;;;;;17.38;58.01;100543.41;5076596;28;1073;-55
2022/09/14 00:08:38;;;;;;;;;;;;;;;16.94;58.58;100545.00;5074022;28;1293;-54
2022/09/14 00:11:04;;;;;;;;;;;;;;;16.64;58.47;100541.25;5076052;28;1072;-49
2022/09/14 00:13:30;;;;;;;;;;;;;;;16.50;58.02;100540.19;5074592;28;1290;-53
2022/09/14 00:15:55;;;;;;;;;;;;;;;16.38;57.89;100544.06;5077991;28;1162;-51
2022/09/14 00:18:21;;;;;;;;;;;;;;;16.29;57.67;100536.69;5090327;28;1134;-58
2022/09/14 00:20:46;;;;;;;;;;;;;;;16.28;57.43;100543.25;5080549;28;1162;-55
2022/09/14 00:23:12;;;;;;;;;;;;;;;16.84;58.26;100547.75;5073610;28;1974;-48
2022/09/14 00:25:37;;;;;;;;;;;;;;;17.39;57.94;100551.38;5069031;28;902;-55
2022/09/14 00:28:02;;;;;;;;;;;;;;;16.76;58.46;100543.69;5072223;28;988;-51
2022/09/14 00:30:28;;;;;;;;;;;;;;;16.61;57.89;100547.28;5078341;28;1038;-55
2022/09/14 00:32:53;;;;;;;;;;;;;;;16.49;57.62;100560.50;5080369;28;1362;-55
2022/09/14 00:35:19;;;;;;;;;;;;;;;16.42;57.51;100556.13;5077844;28;1263;-52
2022/09/14 00:37:47;;;;;;;;;;;;;;;16.32;57.46;100558.88;5088661;28;961;-52
2022/09/14 00:40:12;;;;;;;;;;;;;;;16.41;57.74;100559.97;5078171;28;1140;-53
2022/09/14 00:42:38;;;;;;;;;;;;;;;17.47;57.62;100558.16;5077962;28;1960;-52
2022/09/14 00:45:07;;;;;;;;;;;;;;;16.82;58.56;100556.28;5077876;28;1079;-53
2022/09/14 00:47:32;;;;;;;;;;;;;;;16.57;58.05;100563.50;5076975;28;1021;-51
2022/09/14 00:49:58;;;;;;;;;;;;;;;16.51;57.71;100563.78;5081099;28;1165;-55
2022/09/14 00:52:25;;;;;;;;;;;;;;;16.36;57.70;100562.72;5077545;28;1120;-55
2022/09/14 00:54:54;;;;;;;;;;;;;;;16.28;57.42;100560.53;5077531;28;1119;-55
2022/09/14 00:57:19;;;;;;;;;;;;;;;16.25;57.02;100558.34;5059527;28;1179;-55
2022/09/14 00:59:45;;;;;;;;;;;;;;;17.17;58.01;100561.94;5077005;28;1020;-55
2022/09/14 01:02:13;;;;;;;;;;;;;;;17.21;58.00;100554.78;5090489;28;957;-55
2022/09/14 01:04:39;;;;;;;;;;;;;;;16.79;58.29;100548.63;5077010;28;1913;-55
2022/09/14 01:07:04;;;;;;;;;;;;;;;16.58;58.09;100556.09;5077261;28;970;-55
2022/09/14 01:09:43;;;;;;;;;;;;;;;16.46;57.98;100555.56;5076908;28;1025;-55
2022/09/14 01:12:11;;;;;;;;;;;;;;;16.36;57.57;100559.97;5059399;28;1068;-55
2022/09/14 01:15:02;;;;;;;;;;;;;;;16.29;57.42;100561.38;5083828;28;1127;-55
2022/09/14 01:17:42;;;;;;;;;;;;;;;17.01;58.13;100555.69;5059529;28;1222;-55
2022/09/14 01:20:14;;;;;;;;;;;;;;;17.21;57.83;100566.56;5058806;28;1044;-55
2022/09/14 01:22:51;;;;;;;;;;;;;;;16.72;58.32;100564.56;5077081;28;1897;-54
2022/09/14 01:25:17;;;;;;;;;;;;;;;16.55;57.82;100556.63;5082847;28;1056;-55
2022/09/14 01:27:42;;;;;;;;;;;;;;;16.42;57.91;100550.66;5077374;28;976;-55
2022/09/14 01:30:09;;;;;;;;;;;;;;;16.32;57.52;100555.31;5058649;28;1072;-55
2022/09/14 01:32:37;;;;;;;;;;;;;;;16.25;57.25;100547.38;5076521;28;1009;-55
2022/09/14 01:35:02;;;;;;;;;;;;;;;16.27;57.38;100552.59;5058195;28;1033;-55
2022/09/14 01:37:35;;;;;;;;;;;;;;;17.60;57.60;100557.53;5086299;28;1080;-54
2022/09/14 01:40:06;;;;;;;;;;;;;;;17.01;58.08;100562.00;5059014;28;982;-54
2022/09/14 01:42:31;;;;;;;;;;;;;;;16.66;58.35;100557.44;5058708;28;1981;-54
2022/09/14 01:44:58;;;;;;;;;;;;;;;16.49;57.90;100560.50;5058767;28;1132;-55
2022/09/14 01:47:25;;;;;;;;;;;;;;;16.41;57.67;100559.13;5058852;28;986;-53
2022/09/14 01:50:17;;;;;;;;;;;;;;;16.30;57.26;100558.34;5068054;28;885;-55
2022/09/14 01:52:43;;;;;;;;;;;;;;;16.58;58.25;100562.41;5036785;28;1167;-53
2022/09/14 01:55:12;;;;;;;;;;;;;;;17.58;57.58;100564.44;5058960;28;1191;-53
2022/09/14 01:57:38;;;;;;;;;;;;;;;16.87;58.39;100555.44;5076470;28;989;-50
2022/09/14 02:00:05;;;;;;;;;;;;;;;16.63;58.21;100561.56;5076304;28;1265;-50
2022/09/14 02:02:43;;;;;;;;;;;;;;;16.52;57.59;100560.78;5054286;28;1964;-48
2022/09/14 02:05:08;;;;;;;;;;;;;;;16.40;57.63;100561.06;5081265;28;1016;-48
2022/09/14 02:07:34;;;;;;;;;;;;;;;16.30;57.31;100563.00;5076793;28;970;-52
2022/09/14 02:10:00;;;;;;;;;;;;;;;16.21;57.09;100560.00;5058251;28;1080;-51
2022/09/14 02:12:25;;;;;;;;;;;;;;;17.27;58.16;100570.13;5077313;28;1108;-50
2022/09/14 02:14:51;;;;;;;;;;;;;;;17.18;58.21;100561.66;5081223;28;1119;-51
2022/09/14 02:17:16;;;;;;;;;;;;;;;16.71;58.37;100558.22;5076138;28;1162;-51
2022/09/14 02:20:00;;;;;;;;;;;;;;;16.51;58.13;100563.78;5076335;28;1072;-50
2022/09/14 02:22:26;;;;;;;;;;;;;;;16.43;57.78;100566.00;5058378;28;1963;-50
2022/09/14 02:24:51;;;;;;;;;;;;;;;16.36;57.49;100573.69;5060395;28;1052;-50
2022/09/14 02:27:17;;;;;;;;;;;;;;;16.22;57.27;100567.13;5075843;28;985;-49
2022/09/14 02:29:42;;;;;;;;;;;;;;;16.94;58.44;100566.97;5084616;28;1047;-52
2022/09/14 02:32:21;;;;;;;;;;;;;;;17.24;58.40;100573.44;5058666;28;1020;-51
2022/09/14 02:34:46;;;;;;;;;;;;;;;16.71;58.50;100569.22;5072180;28;1024;-50
2022/09/14 02:37:11;;;;;;;;;;;;;;;16.53;58.17;100572.56;5078178;28;1481;-47
2022/09/14 02:39:37;;;;;;;;;;;;;;;16.42;57.83;100563.53;5076589;28;1146;-49
2022/09/14 02:42:02;;;;;;;;;;;;;;;16.34;57.54;100564.94;5076254;28;1064;-47
2022/09/14 02:44:46;;;;;;;;;;;;;;;16.68;58.47;100558.81;5075629;28;1979;-50
2022/09/14 02:47:15;;;;;;;;;;;;;;;17.48;58.04;100553.50;5073724;28;961;-47
2022/09/14 02:49:43;;;;;;;;;;;;;;;16.83;58.52;100555.19;5083069;28;1079;-50
2022/09/14 02:52:12;;;;;;;;;;;;;;;16.62;58.29;100559.94;5077260;28;1040;-48
2022/09/14 02:55:01;;;;;;;;;;;;;;;16.46;57.87;100561.06;5061924;28;1151;-48
2022/09/14 02:57:26;;;;;;;;;;;;;;;16.40;57.34;100563.00;5059981;28;1081;-49
2022/09/14 02:59:52;;;;;;;;;;;;;;;16.28;57.28;100559.72;5078257;28;1127;-56
2022/09/14 03:02:17;;;;;;;;;;;;;;;16.36;57.98;100562.72;5091338;28;1048;-55
2022/09/14 03:04:43;;;;;;;;;;;;;;;17.69;57.84;100566.00;5079596;28;1979;-56
2022/09/14 03:07:08;;;;;;;;;;;;;;;16.91;58.66;100553.81;5080002;28;1099;-56
2022/09/14 03:09:34;;;;;;;;;;;;;;;16.68;58.18;100566.22;5083702;28;1080;-56
2022/09/14 03:11:59;;;;;;;;;;;;;;;16.51;57.92;100552.78;5081323;28;965;-57
2022/09/14 03:14:25;;;;;;;;;;;;;;;16.41;57.52;100549.00;5080308;28;998;-54
2022/09/14 03:16:50;;;;;;;;;;;;;;;17.47;58.19;100557.34;5079388;28;989;-53
2022/09/14 03:19:16;;;;;;;;;;;;;;;16.99;58.75;100547.72;5079394;28;1012;-52
2022/09/14 03:21:41;;;;;;;;;;;;;;;16.69;58.58;100554.97;5079039;28;1423;-55
2022/09/14 03:24:07;;;;;;;;;;;;;;;16.53;58.22;100565.16;5078580;28;1901;-54
2022/09/14 03:26:35;;;;;;;;;;;;;;;16.41;58.02;100562.72;5088489;28;854;-55
2022/09/14 03:29:01;;;;;;;;;;;;;;;16.33;57.37;100562.47;5081058;28;1170;-56
2022/09/14 03:31:26;;;;;;;;;;;;;;;16.23;57.53;100568.78;5079285;28;1067;-56
2022/09/14 03:33:55;;;;;;;;;;;;;;;16.94;58.58;100566.97;5078768;28;1158;-56
2022/09/14 03:36:21;;;;;;;;;;;;;;;17.26;58.61;100584.97;5079063;28;962;-56
2022/09/14 03:38:48;;;;;;;;;;;;;;;16.73;58.67;100577.19;5087994;28;1559;-58
2022/09/14 03:41:14;;;;;;;;;;;;;;;16.54;58.47;100585.19;5079240;28;953;-56
2022/09/14 03:43:40;;;;;;;;;;;;;;;16.43;57.88;100595.38;5078690;28;1905;-56
2022/09/14 03:46:06;;;;;;;;;;;;;;;16.34;57.67;100589.63;5078843;28;1175;-57
2022/09/14 03:48:31;;;;;;;;;;;;;;;16.22;57.30;100594.56;5079035;28;1155;-57
2022/09/14 03:50:59;;;;;;;;;;;;;;;16.43;58.39;100595.38;5082365;28;1017;-57
2022/09/14 03:53:24;;;;;;;;;;;;;;;17.71;57.74;100596.78;5072790;28;1250;-57
2022/09/14 03:55:49;;;;;;;;;;;;;;;16.96;58.72;100603.22;5089667;28;965;-55
2022/09/14 03:58:15;;;;;;;;;;;;;;;16.68;58.68;100607.41;5070907;28;1230;-56
2022/09/14 04:00:40;;;;;;;;;;;;;;;16.42;58.44;100600.06;5078146;28;1079;-54
2022/09/14 04:03:06;;;;;;;;;;;;;;;16.34;57.96;100600.59;5066583;28;1897;-54
2022/09/14 04:05:31;;;;;;;;;;;;;;;16.26;57.83;100601.16;5077684;28;1111;-55
2022/09/14 04:07:57;;;;;;;;;;;;;;;16.23;57.68;100599.78;5059213;28;1111;-53
2022/09/14 04:10:22;;;;;;;;;;;;;;;17.61;57.97;100602.34;5077563;28;1036;-55
2022/09/14 04:12:47;;;;;;;;;;;;;;;16.94;58.94;100602.66;5078228;28;1024;-56
2022/09/14 04:15:13;;;;;;;;;;;;;;;16.66;58.66;100610.44;5075681;28;926;-54
2022/09/14 04:17:39;;;;;;;;;;;;;;;16.47;58.34;100603.88;5078364;28;965;-56
2022/09/14 04:20:05;;;;;;;;;;;;;;;16.36;57.98;100609.38;5078271;28;1120;-54
2022/09/14 04:22:30;;;;;;;;;;;;;;;16.31;57.46;100608.56;5077797;28;1978;-55
2022/09/14 04:24:56;;;;;;;;;;;;;;;16.41;58.14;100617.59;5077787;28;1363;-56
2022/09/14 04:27:21;;;;;;;;;;;;;;;17.70;57.70;100611.66;5086705;28;915;-53
2022/09/14 04:29:48;;;;;;;;;;;;;;;16.96;58.85;100614.22;5078327;28;1048;-55
2022/09/14 04:32:13;;;;;;;;;;;;;;;16.65;58.88;100617.03;5078151;28;970;-54
2022/09/14 04:34:38;;;;;;;;;;;;;;;16.51;58.24;100615.94;5077823;28;1060;-53
2022/09/14 04:37:04;;;;;;;;;;;;;;;16.45;57.94;100625.28;5077920;28;1135;-53
2022/09/14 04:39:29;;;;;;;;;;;;;;;16.35;57.72;100620.63;5083105;28;948;-55
2022/09/14 04:41:55;;;;;;;;;;;;;;;16.82;58.63;100624.94;5076569;28;2839;-54
2022/09/14 04:44:20;;;;;;;;;;;;;;;17.43;58.09;100631.31;5084199;28;2063;-55
2022/09/14 04:46:45;;;;;;;;;;;;;;;16.84;58.71;100624.66;5080386;28;1927;-54
2022/09/14 04:49:11;;;;;;;;;;;;;;;16.58;58.64;100625.53;5081377;28;2062;-56
2022/09/14 04:51:37;;;;;;;;;;;;;;;16.50;57.90;100633.50;5076444;28;1837;-55
2022/09/14 04:54:03;;;;;;;;;;;;;;;16.40;57.92;100632.41;5082222;28;2079;-55
2022/09/14 04:56:30;;;;;;;;;;;;;;;16.36;57.26;100623.09;5082772;28;1966;-56
2022/09/14 04:58:59;;;;;;;;;;;;;;;16.19;57.57;100622.56;5087828;28;1156;-55
2022/09/14 05:01:28;;;;;;;;;;;;;;;17.39;58.07;100622.81;5069821;28;1207;-54
2022/09/14 05:03:54;;;;;;;;;;;;;;;17.07;58.51;100632.31;5068749;28;1909;-52
2022/09/14 05:06:21;;;;;;;;;;;;;;;16.75;58.16;100625.22;5075857;28;1364;-54
2022/09/14 05:08:47;;;;;;;;;;;;;;;16.59;57.79;100621.69;5070602;28;1040;-54
2022/09/14 05:11:14;;;;;;;;;;;;;;;16.46;57.71;100632.41;5075984;28;1215;-53
2022/09/14 05:13:39;;;;;;;;;;;;;;;16.35;57.55;100629.66;5075410;28;1151;-54
2022/09/14 05:16:09;;;;;;;;;;;;;;;16.30;57.39;100629.69;5069467;28;1032;-48
2022/09/14 05:18:35;;;;;;;;;;;;;;;16.25;57.20;100622.25;5076715;28;1096;-50
2022/09/14 05:21:03;;;;;;;;;;;;;;;16.75;57.82;100633.47;5076652;28;1096;-53
2022/09/14 05:23:29;;;;;;;;;;;;;;;17.70;57.05;100630.91;5076675;28;1894;-53
2022/09/14 05:25:55;;;;;;;;;;;;;;;17.01;58.23;100627.09;5075935;28;1091;-50
2022/09/14 05:28:20;;;;;;;;;;;;;;;16.73;57.85;100632.94;5076086;28;1929;-53
2022/09/14 05:30:46;;;;;;;;;;;;;;;16.59;57.83;100638.16;5076350;28;1353;-48
2022/09/14 05:33:11;;;;;;;;;;;;;;;16.48;57.56;100633.78;5076161;28;1236;-51
2022/09/14 05:35:36;;;;;;;;;;;;;;;16.41;57.42;100642.31;5056967;28;1099;-53
2022/09/14 05:38:02;;;;;;;;;;;;;;;16.30;57.41;100626.94;5076333;28;1179;-56
2022/09/14 05:40:27;;;;;;;;;;;;;;;16.26;57.01;100628.59;5086222;28;979;-53
2022/09/14 05:42:53;;;;;;;;;;;;;;;18.07;54.08;100631.50;5076674;28;1979;-55
2022/09/14 05:45:18;;;;;;;;;;;;;;;17.08;54.71;100633.13;5073580;28;1045;-54
2022/09/14 05:47:44;;;;;;;;;;;;;;;17.35;55.23;100632.75;5076750;28;1040;-55
2022/09/14 05:50:09;;;;;;;;;;;;;;;17.77;54.60;100642.41;5075881;28;1182;-52
2022/09/14 05:52:35;;;;;;;;;;;;;;;17.15;53.58;100638.31;5074482;28;1254;-49
2022/09/14 05:55:00;;;;;;;;;;;;;;;17.91;55.02;100650.06;5076257;28;1274;-48
2022/09/14 05:57:26;;;;;;;;;;;;;;;17.42;54.24;100643.44;5075875;28;1825;-50
2022/09/14 05:59:51;;;;;;;;;;;;;;;17.07;52.77;100643.28;5075968;28;1230;-53
2022/09/14 06:02:17;;;;;;;;;;;;;;;16.97;51.58;100640.59;5075096;28;1316;-53
2022/09/14 06:04:42;;;;;;;;;;;;;;;17.44;52.91;100646.72;5073293;28;1914;-52
2022/09/14 06:07:07;;;;;;;;;;;;;;;17.52;53.26;100639.81;5076323;28;1310;-52
2022/09/14 06:09:33;;;;;;;;;;;;;;;17.16;52.22;100650.97;5076265;28;969;-50
2022/09/14 06:11:58;;;;;;;;;;;;;;;16.99;51.01;100654.03;5076335;28;1139;-52
2022/09/14 06:14:24;;;;;;;;;;;;;;;16.90;50.33;100653.75;5076302;28;1075;-52
2022/09/14 06:16:49;;;;;;;;;;;;;;;18.11;52.03;100657.34;5084154;28;1032;-53
2022/09/14 06:19:15;;;;;;;;;;;;;;;17.37;52.06;100663.50;5077287;28;1074;-53
2022/09/14 06:21:40;;;;;;;;;;;;;;;17.12;51.10;100655.38;5085422;28;992;-50
2022/09/14 06:24:06;;;;;;;;;;;;;;;16.99;50.08;100651.28;5080341;28;1980;-48
2022/09/14 06:26:31;;;;;;;;;;;;;;;17.91;51.93;100655.56;5079662;28;1828;-50
2022/09/14 06:28:57;;;;;;;;;;;;;;;17.29;51.47;100655.84;5065152;28;1076;-50
2022/09/14 06:31:24;;;;;;;;;;;;;;;17.15;50.47;100646.56;5080283;28;1123;-48
2022/09/14 06:33:50;;;;;;;;;;;;;;;18.03;51.10;100653.25;5080097;28;1076;-51
2022/09/14 06:36:18;;;;;;;;;;;;;;;17.48;51.13;100653.28;5080315;28;1037;-53
2022/09/14 06:38:44;;;;;;;;;;;;;;;17.27;50.19;100652.56;5079446;28;1000;-52
2022/09/14 06:41:11;;;;;;;;;;;;;;;17.10;49.65;100659.22;5062179;28;1218;-52
2022/09/14 06:43:37;;;;;;;;;;;;;;;17.16;49.74;100657.25;5089828;28;1906;-51
2022/09/14 06:46:07;;;;;;;;;;;;;;;18.00;50.86;100659.31;5082375;28;917;-50
2022/09/14 06:48:33;;;;;;;;;;;;;;;17.47;50.47;100656.31;5079492;28;1186;-51
2022/09/14 06:50:58;;;;;;;;;;;;;;;17.33;49.63;100662.41;5076771;28;969;-51
2022/09/14 06:53:24;;;;;;;;;;;;;;;18.07;50.79;100668.06;5080179;28;961;-52
2022/09/14 06:55:50;;;;;;;;;;;;;;;15.54;57.29;100664.09;5084682;28;1196;-49
2022/09/14 06:58:15;;;;;;;;;;;;;;;16.15;53.54;100665.34;5079306;28;2345;-51
2022/09/14 07:00:41;;;;;;;;;;;;;;;17.90;52.45;100662.94;5079407;28;1067;-53
2022/09/14 07:03:07;;;;;;;;;;;;;;;17.35;51.90;100657.47;5078953;28;1905;-50
2022/09/14 07:05:32;;;;;;;;;;;;;;;17.15;50.99;100657.53;5079912;28;1076;-51
2022/09/14 07:07:57;;;;;;;;;;;;;;;17.09;49.65;100665.78;5081259;28;1135;-49
2022/09/14 07:10:26;;;;;;;;;;;;;;;17.95;51.16;100668.44;5090907;28;1047;-51
2022/09/14 07:12:53;;;;;;;;;;;;;;;17.43;50.88;100654.13;5079653;28;977;-48
2022/09/14 07:15:18;;;;;;;;;;;;;;;17.27;49.97;100658.06;5088300;28;1135;-51
2022/09/14 07:17:44;;;;;;;;;;;;;;;17.23;49.28;100667.97;5086073;28;1109;-50
2022/09/14 07:20:10;;;;;;;;;;;;;;;18.18;50.33;100655.06;5079366;28;1147;-52
2022/09/14 07:22:35;;;;;;;;;;;;;;;17.54;50.69;100667.81;5079067;28;1064;-49
2022/09/14 07:25:01;;;;;;;;;;;;;;;17.40;49.64;100664.88;5078921;28;1901;-51
2022/09/14 07:27:26;;;;;;;;;;;;;;;17.24;49.01;100664.13;5079139;28;2405;-56
2022/09/14 07:29:52;;;;;;;;;;;;;;;17.31;48.17;100655.59;5078741;28;1103;-50
2022/09/14 07:32:18;;;;;;;;;;;;;;;18.22;49.31;100652.56;5072267;28;996;-50
2022/09/14 07:34:43;;;;;;;;;;;;;;;17.52;50.27;100659.06;5091190;28;988;-53
2022/09/14 07:37:09;;;;;;;;;;;;;;;17.40;49.43;100662.13;5079950;28;1083;-51
2022/09/14 07:39:34;;;;;;;;;;;;;;;17.30;48.58;100665.72;5082389;28;985;-48
2022/09/14 07:42:00;;;;;;;;;;;;;;;18.26;50.20;100657.22;5081775;28;992;-51
2022/09/14 07:44:25;;;;;;;;;;;;;;;15.14;57.36;100669.16;5088297;28;1902;-49
2022/09/14 07:46:51;;;;;;;;;;;;;;;16.69;50.86;100664.78;5078826;28;1139;-49
2022/09/14 07:49:16;;;;;;;;;;;;;;;17.84;51.22;100660.50;5078860;28;1016;-49
2022/09/14 07:51:42;;;;;;;;;;;;;;;17.28;51.14;100659.72;5079796;28;1077;-49
2022/09/14 07:54:09;;;;;;;;;;;;;;;17.19;49.88;100658.63;5087340;28;1004;-50
2022/09/14 07:56:34;;;;;;;;;;;;;;;18.01;50.37;100660.16;5078355;28;2388;-46
2022/09/14 07:58:59;;;;;;;;;;;;;;;17.41;50.47;100656.34;5078130;28;1115;-53
2022/09/14 08:01:26;;;;;;;;;;;;;;;17.26;49.59;100659.16;5078473;28;1021;-51
2022/09/14 08:03:51;;;;;;;;;;;;;;;17.44;49.39;100653.00;5075964;28;1901;-50
2022/09/14 08:06:21;;;;;;;;;;;;;;;17.72;50.39;100653.41;5077870;28;1259;-51
2022/09/14 08:08:48;;;;;;;;;;;;;;;17.40;49.51;100651.97;5076907;28;1175;-52
2022/09/14 08:11:14;;;;;;;;;;;;;;;17.27;49.10;100656.13;5077865;28;1226;-45
2022/09/14 08:13:40;;;;;;;;;;;;;;;17.23;48.10;100656.97;5077668;28;1211;-55
2022/09/14 08:16:06;;;;;;;;;;;;;;;17.22;47.95;100652.56;5087309;28;790;-53
2022/09/14 08:18:31;;;;;;;;;;;;;;;17.18;47.28;100654.22;5082500;28;956;-52
2022/09/14 08:21:01;;;;;;;;;;;;;;;17.11;47.43;100649.06;5078648;28;1126;-48
2022/09/14 08:23:26;;;;;;;;;;;;;;;18.34;48.92;100655.78;5077733;28;1922;-50
2022/09/14 08:25:52;;;;;;;;;;;;;;;17.60;49.72;100650.22;5077681;28;1178;-50
2022/09/14 08:28:17;;;;;;;;;;;;;;;17.42;49.08;100659.94;5085394;28;2504;-50
2022/09/14 08:30:42;;;;;;;;;;;;;;;17.34;48.98;100653.06;5080431;28;1194;-53
2022/09/14 08:33:08;;;;;;;;;;;;;;;16.85;52.46;100656.50;5077618;28;1025;-47
2022/09/14 08:35:33;;;;;;;;;;;;;;;16.24;55.67;100653.56;5077598;28;1167;-47
2022/09/14 08:37:58;;;;;;;;;;;;;;;18.83;51.50;100658.59;5075851;28;1151;-47
2022/09/14 08:40:24;;;;;;;;;;;;;;;15.12;59.51;100651.34;5084058;28;896;-48
2022/09/14 08:42:49;;;;;;;;;;;;;;;16.51;53.48;100648.88;5081830;28;1988;-48
2022/09/14 08:45:15;;;;;;;;;;;;;;;17.78;52.97;100643.22;5060159;28;1175;-52
2022/09/14 08:47:41;;;;;;;;;;;;;;;17.43;51.64;100632.16;5076938;28;1008;-51
2022/09/14 08:50:11;;;;;;;;;;;;;;;17.24;50.41;100629.22;5076802;28;1115;-51
2022/09/14 08:52:42;;;;;;;;;;;;;;;17.21;49.62;100640.78;5065129;28;839;-49
2022/09/14 08:55:16;;;;;;;;;;;;;;;17.17;48.72;100627.88;5060858;28;1067;-50
2022/09/14 08:57:45;;;;;;;;;;;;;;;17.14;48.23;100620.19;5076379;28;1828;-52
2022/09/14 09:00:12;;;;;;;;;;;;;;;17.97;49.89;100626.88;5076782;28;1250;-51
2022/09/14 09:02:57;;;;;;;;;;;;;;;17.42;50.12;100626.94;5077064;28;1187;-52
2022/09/14 09:05:29;;;;;;;;;;;;;;;17.38;48.93;100626.66;5073740;28;1139;-51
2022/09/14 09:08:13;;;;;;;;;;;;;;;17.17;48.76;100625.13;5076576;28;1314;-51
2022/09/14 09:10:38;;;;;;;;;;;;;;;17.15;48.22;100617.16;5076785;28;1132;-46
2022/09/14 09:13:04;;;;;;;;;;;;;;;17.42;48.55;100619.50;5058679;28;1160;-53
2022/09/14 09:15:31;;;;;;;;;;;;;;;17.78;49.50;100630.28;5071119;28;1016;-47
2022/09/14 09:17:58;;;;;;;;;;;;;;;17.46;49.13;100628.03;5058638;28;1278;-53
2022/09/14 09:20:27;;;;;;;;;;;;;;;17.35;48.44;100615.41;5072532;28;1084;-48
2022/09/14 09:23:07;;;;;;;;;;;;;;;17.33;47.99;100620.38;5076623;28;1976;-51
2022/09/14 09:25:53;;;;;;;;;;;;;;;17.23;47.55;100629.50;5076030;28;1196;-50
2022/09/14 09:28:18;;;;;;;;;;;;;;;17.13;47.28;100622.13;5074969;28;2366;-49
2022/09/14 09:30:44;;;;;;;;;;;;;;;17.07;47.25;100618.56;5075267;28;1298;-47
2022/09/14 09:33:20;;;;;;;;;;;;;;;18.12;48.00;100612.19;5076137;28;1211;-51
2022/09/14 09:36:14;;;;;;;;;;;;;;;17.43;48.99;100601.91;5060048;28;1346;-51
2022/09/14 09:38:40;;;;;;;;;;;;;;;17.34;48.46;100602.78;5058543;28;1152;-49
2022/09/14 09:41:20;;;;;;;;;;;;;;;17.28;48.06;100604.75;5074908;28;1199;-50
2022/09/14 09:44:01;;;;;;;;;;;;;;;18.10;48.35;100612.50;5056337;28;1913;-50
2022/09/14 09:46:28;;;;;;;;;;;;;;;14.79;57.18;100598.59;5075991;28;1186;-50
2022/09/14 09:48:54;;;;;;;;;;;;;;;16.38;50.94;100587.97;5076201;28;1254;-49
2022/09/14 09:51:22;;;;;;;;;;;;;;;16.89;48.74;100588.97;5058300;28;1513;-52
2022/09/14 09:53:49;;;;;;;;;;;;;;;17.86;49.86;100595.03;5071946;28;1179;-49
2022/09/14 09:56:50;;;;;;;;;;;;;;;17.42;49.63;100589.28;5057372;28;1192;-53
2022/09/14 09:59:29;;;;;;;;;;;;;;;17.17;49.02;100592.16;4992824;28;1275;-53
2022/09/14 10:01:55;;;;;;;;;;;;;;;18.32;49.05;100594.66;5065585;28;1216;-52
2022/09/14 10:04:26;;;;;;;;;;;;;;;14.46;58.39;100597.81;5075675;28;1979;-50
2022/09/14 10:06:53;;;;;;;;;;;;;;;17.14;52.48;100598.19;5076342;28;1191;-50
2022/09/14 10:09:28;;;;;;;;;;;;;;;17.84;51.30;100605.50;5074682;28;1305;-47
2022/09/14 10:11:57;;;;;;;;;;;;;;;17.37;50.37;100600.28;5075913;28;1230;-50
2022/09/14 10:14:25;;;;;;;;;;;;;;;17.24;49.81;100598.16;5070115;28;1290;-48
2022/09/14 10:16:50;;;;;;;;;;;;;;;17.24;48.78;100604.47;5058065;28;1144;-48
2022/09/14 10:19:20;;;;;;;;;;;;;;;17.44;49.15;100597.22;5058198;28;1211;-49
2022/09/14 10:22:04;;;;;;;;;;;;;;;17.67;49.75;100606.72;5076002;28;1132;-51
2022/09/14 10:24:31;;;;;;;;;;;;;;;17.38;49.41;100593.69;5075826;28;1909;-50
2022/09/14 10:26:56;;;;;;;;;;;;;;;17.32;48.57;100603.06;5075712;28;1911;-51
2022/09/14 10:29:54;;;;;;;;;;;;;;;18.06;49.14;100596.81;5070685;28;1231;-51
2022/09/14 10:32:22;;;;;;;;;;;;;;;14.51;58.27;100595.13;5026979;28;1269;-48
2022/09/14 10:34:49;;;;;;;;;;;;;;;16.95;51.63;100593.34;5058166;28;1235;-51
2022/09/14 10:37:19;;;;;;;;;;;;;;;17.58;50.86;100586.44;5058330;28;1207;-48
2022/09/14 10:39:47;;;;;;;;;;;;;;;17.27;50.11;100587.41;5042155;28;1259;-48
2022/09/14 10:42:31;;;;;;;;;;;;;;;17.21;49.34;100587.75;5051281;28;1231;-50
2022/09/14 10:45:03;;;;;;;;;;;;;;;17.22;48.30;100586.63;5075205;28;1984;-51
2022/09/14 10:47:35;;;;;;;;;;;;;;;17.26;48.43;100584.97;5070262;28;1111;-48
2022/09/14 10:50:04;;;;;;;;;;;;;;;17.87;49.37;100582.94;5058036;28;1191;-48
2022/09/14 10:52:42;;;;;;;;;;;;;;;17.48;49.27;100583.75;5075348;28;1356;-50
2022/09/14 10:55:30;;;;;;;;;;;;;;;17.38;48.70;100570.88;5075106;28;1215;-51
2022/09/14 10:58:11;;;;;;;;;;;;;;;17.40;47.65;100569.50;5073340;28;2181;-55
2022/09/14 11:00:50;;;;;;;;;;;;;;;17.34;47.45;100580.81;5072930;28;1162;-52
2022/09/14 11:03:38;;;;;;;;;;;;;;;17.18;47.58;100575.41;5056547;28;1913;-50
2022/09/14 11:06:10;;;;;;;;;;;;;;;17.72;48.03;100570.09;5068244;28;907;-52
2022/09/14 11:08:35;;;;;;;;;;;;;;;17.65;48.91;100569.63;5075037;28;1048;-53
2022/09/14 11:11:03;;;;;;;;;;;;;;;17.39;48.82;100561.50;5089991;28;966;-51
2022/09/14 11:13:41;;;;;;;;;;;;;;;17.42;47.92;100553.53;5080694;28;1201;-50
2022/09/14 11:16:13;;;;;;;;;;;;;;;17.22;47.75;100556.41;5085788;28;904;-50
2022/09/14 11:18:38;;;;;;;;;;;;;;;17.27;47.28;100570.13;5091432;28;984;-51
2022/09/14 11:21:16;;;;;;;;;;;;;;;17.60;48.15;100563.03;5086496;28;1020;-52
2022/09/14 11:23:46;;;;;;;;;;;;;;;17.61;48.61;100561.09;5073869;28;1913;-53
2022/09/14 11:26:13;;;;;;;;;;;;;;;17.50;48.40;100557.63;5061616;28;997;-51
2022/09/14 11:28:41;;;;;;;;;;;;;;;17.40;47.80;100558.50;5061467;28;2546;-54
2022/09/14 11:31:10;;;;;;;;;;;;;;;17.27;47.80;100561.88;5070147;28;1032;-52
2022/09/14 11:33:59;;;;;;;;;;;;;;;17.36;47.12;100559.34;5061335;28;1206;-52
2022/09/14 11:36:26;;;;;;;;;;;;;;;18.17;47.75;100565.34;5060878;28;1445;-48
2022/09/14 11:39:03;;;;;;;;;;;;;;;14.71;56.59;100547.94;5079640;28;1120;-54
2022/09/14 11:42:01;;;;;;;;;;;;;;;16.67;49.78;100545.34;5063893;28;1017;-50
2022/09/14 11:44:34;;;;;;;;;;;;;;;18.24;49.19;100543.00;5036432;28;1918;-52
2022/09/14 11:46:59;;;;;;;;;;;;;;;14.48;58.28;100541.75;5076525;28;1177;-52
2022/09/14 11:49:25;;;;;;;;;;;;;;;17.48;52.25;100542.50;5078357;28;1450;-52
2022/09/14 11:51:50;;;;;;;;;;;;;;;16.83;54.07;100533.22;5078391;28;1084;-47
2022/09/14 11:54:17;;;;;;;;;;;;;;;15.50;56.17;100536.94;5087477;28;921;-55
2022/09/14 11:56:42;;;;;;;;;;;;;;;17.00;52.34;100538.38;5082850;28;1847;-56
2022/09/14 11:59:09;;;;;;;;;;;;;;;17.65;51.79;100529.19;5062202;28;1287;-53
2022/09/14 12:01:38;;;;;;;;;;;;;;;17.30;50.93;100522.81;5066359;28;1031;-54
2022/09/14 12:04:13;;;;;;;;;;;;;;;17.20;49.79;100509.97;5057434;28;1901;-52
2022/09/14 12:06:39;;;;;;;;;;;;;;;17.12;49.12;100513.31;5072411;28;1198;-56
2022/09/14 12:09:19;;;;;;;;;;;;;;;17.35;49.30;100509.06;5077788;28;1187;-54
2022/09/14 12:11:45;;;;;;;;;;;;;;;17.65;50.17;100509.94;5078113;28;1226;-56
2022/09/14 12:14:23;;;;;;;;;;;;;;;17.43;49.42;100504.88;5079287;28;1179;-54
2022/09/14 12:17:15;;;;;;;;;;;;;;;17.36;48.65;100494.22;5077690;28;1166;-54
2022/09/14 12:19:41;;;;;;;;;;;;;;;17.23;48.04;100483.84;5073183;28;1941;-57
2022/09/14 12:22:25;;;;;;;;;;;;;;;17.36;47.41;100485.97;5059938;28;1199;-56
2022/09/14 12:25:17;;;;;;;;;;;;;;;17.94;48.88;100484.41;5077075;28;1902;-57
2022/09/14 12:27:42;;;;;;;;;;;;;;;17.54;48.73;100491.88;5072965;28;1816;-56
2022/09/14 12:30:46;;;;;;;;;;;;;;;17.31;48.72;100480.50;5059489;28;1262;-57
2022/09/14 12:33:33;;;;;;;;;;;;;;;17.44;47.73;100474.34;4976429;28;1461;-56
2022/09/14 12:35:59;;;;;;;;;;;;;;;17.30;47.44;100473.34;4976611;28;1240;-56
2022/09/14 12:38:30;;;;;;;;;;;;;;;17.34;47.02;100474.44;5036013;28;1256;-52
2022/09/14 12:41:14;;;;;;;;;;;;;;;17.36;46.75;100474.16;5074925;28;1129;-56
2022/09/14 12:43:49;;;;;;;;;;;;;;;17.21;46.80;100472.34;5075279;28;1901;-57
2022/09/14 12:46:20;;;;;;;;;;;;;;;17.65;47.35;100471.44;5068515;28;1345;-57
2022/09/14 12:48:53;;;;;;;;;;;;;;;16.04;52.98;100473.34;5077534;28;1143;-57
2022/09/14 12:51:28;;;;;;;;;;;;;;;16.09;51.86;100464.31;5077342;28;997;-56
2022/09/14 12:54:05;;;;;;;;;;;;;;;17.29;49.79;100457.97;5076795;28;1357;-55
2022/09/14 12:56:42;;;;;;;;;;;;;;;17.57;49.80;100459.16;5077381;28;2167;-56